This is the latest recevied weather packets stored in our database for station/object KI4LFI. If no packets are shown the sender has not sent any weather packets the latest 10 day(s).
| Time | Temp. | Humidity | Pressure | Rain* | Wind** | Luminosity | Snow |
|---|---|---|---|---|---|---|---|
| 1777794337 | 6.67° C | 98% | 1018.9 hPa | 0 mm | - | - | - |
| 1777792553 | 6.67° C | 98% | 1018.7 hPa | 0 mm | - | - | - |
| 1777788050 | 7.22° C | 96% | 1018.3 hPa | 0 mm | - | - | - |
| 1777783548 | 8.33° C | 96% | 1018 hPa | 0 mm | - | - | - |
| 1777779043 | 9.44° C | 92% | 1017.6 hPa | 0 mm | - | - | - |
| 1777777240 | 10.56° C | 90% | 1017.4 hPa | 0 mm | - | - | - |
| 1777770946 | 13.89° C | 79% | 1016.1 hPa | 0 mm | - | - | - |
| 1777769146 | 15.56° C | 63% | 1015.6 hPa | 0 mm | - | - | - |
| 1777766455 | 17.78° C | 58% | 1014.6 hPa | 0 mm | - | - | - |
| 1777760138 | 21.11° C | 57% | 1013.2 hPa | 0 mm | - | - | - |
| 1777755639 | 21.11° C | 63% | 1012.8 hPa | 0 mm | - | - | - |
| 1777752944 | 22.78° C | 61% | 1013 hPa | 0 mm | - | - | - |
| 1777752041 | 22.22° C | 62% | 1013.3 hPa | 0 mm | - | - | - |
| 1777747535 | 20.56° C | 69% | 1013.7 hPa | 0 mm | - | - | - |
| 1777746639 | 20° C | 71% | 1013.8 hPa | 0 mm | - | - | - |
| 1777743050 | 18.33° C | 88% | 1013.8 hPa | 0 mm | - | - | - |
| 1777739446 | 16.67° C | 97% | 1013.9 hPa | 0 mm | - | - | - |
| 1777731347 | 12.78° C | 100% | 1013.8 hPa | 0 mm | - | - | - |
| 1777721450 | 11.11° C | 100% | 1012.3 hPa | 2.54 mm | - | - | - |
| 1777718741 | 11.11° C | 100% | 1012.6 hPa | 3.56 mm | - | - | - |
| 1777717842 | 11.11° C | 100% | 1012.4 hPa | 2.54 mm | - | - | - |
| 1777716936 | 11.11° C | 100% | 1011.9 hPa | 2.54 mm | - | - | - |
| 1777713337 | 11.11° C | 100% | 1011.1 hPa | 5.33 mm | - | - | - |
| 1777698938 | 12.22° C | 100% | 1012.5 hPa | 2.29 mm | - | - | - |
| 1777692639 | 12.22° C | 100% | 1012.8 hPa | 4.57 mm | - | - | - |
* Rain latest hour (hover to see other rain measurements)
** Current wind speed in m/s (hover to see current wind gust speed)